Ital Oriente — A8LN2 — position and weather

sailwx.info

Track history (hours):
 
Tides and Currents Weather Stations Pressure Air Temp Water Temp Dewpoint Dewpoint Depression Visibility Wind Speed Wind Dir Waves Ship Positions

Ital Oriente

Last reported at 2017-May-27 12:00 UTC. Time now 2017-May-27 13:43 UTC.
Position N 25°42' W 015°24'.

Length 222 m; draft 10.8 m.

Type: Cargo ship. MMSI: 636091278.

Wind from 360 at 8 knots

Barometer 1018.0 mb
Air temperature 22.0 ° C
Visibility: greater than 10.8 NM
Water temperature 22.0 ° C

Date/timePositionNaut miles runAvg speedWind from/ knotsBaromVisibWave heightAir tempDewpointWater temp
2017-May-27 12:00N 25°42' W 015°24'10317.1 360 / 81018.010.8 22.0 22.0
2017-May-27 06:00N 27°06' W 014°18'3919.3 360 / 61016.010.8 21.0 20.0
2017-May-27 03:58N 27°40' W 013°56'1518.0
2017-May-27 03:09N 27°51' W 013°46'1517.8
2017-May-27 02:20N 28°03' W 013°36'617.8
2017-May-27 02:00N 28°08' W 013°33'1317.7
2017-May-27 01:15N 28°19' W 013°24'417.8
2017-May-27 01:01N 28°23' W 013°21'1317.7
2017-May-27 00:16N 28°33' W 013°12'11117.6
2017-May-26 18:00N 30°00' W 011°54'10617.7 340 / 121015.010.8 22.0 20.0
2017-May-26 12:00N 31°30' W 010°48'239 8.0 360 / 101016.010.8 20.0 20.0
2017-May-25 06:00N 34°06' W 007°12'12813.5 240 / 121013.010.8 21.0 20.0
2017-May-24 20:30N 35°57' W 005°53'1614.6
2017-May-24 19:25N 35°57' W 005°34'3 0.3
2017-May-24 06:38N 35°54' W 005°34'1 4.3
2017-May-24 06:28N 35°53' W 005°34'0 0.1
2017-May-24 03:18N 35°53' W 005°34'0 0.1
2017-May-23 22:58N 35°53' W 005°35'2 2.7
2017-May-23 22:22N 35°54' W 005°34'612.3
2017-May-23 21:54N 35°54' W 005°41'4 9.7
2017-May-23 21:30N 35°54' W 005°46'510.7
2017-May-23 21:00N 35°54' W 005°53'4514.9
2017-May-23 18:00N 35°54' W 006°48'7313.2 090 / 351010.0 5.4 22.0 19.0
2017-May-23 12:27N 36°14' W 008°15'612.9
2017-May-23 12:00N 36°16' W 008°22'4255.3
2017-May-23 12:00N 36°12' W 008°24'714.1 090 / 151015.010.8 24.022.620.0
2017-May-23 11:30N 36°17' W 008°30'713.1
2017-May-23 11:00N 36°19' W 008°38'612.9
2017-May-23 10:30N 36°21' W 008°45'713.0
2017-May-23 10:00N 36°23' W 008°53'713.1
2017-May-23 09:30N 36°25' W 009°01'613.0
2017-May-23 09:00N 36°27' W 009°08'713.1
2017-May-23 08:30N 36°29' W 009°16'713.3
2017-May-23 07:59N 36°33' W 009°23'713.8
2017-May-23 07:30N 36°38' W 009°29'713.7
2017-May-23 07:01N 36°43' W 009°34'713.6
2017-May-23 06:30N 36°49' W 009°39'611.0
2017-May-23 06:00N 36°54' W 009°36'4787.3 360 / 191015.010.8 18.0 18.0
2017-May-23 05:59N 36°56' W 009°41'714.2
2017-May-23 05:30N 37°03' W 009°42'2313.9
2017-May-23 03:53N 37°25' W 009°49'613.8
2017-May-23 03:28N 37°30' W 009°50'613.9
2017-May-23 03:00N 37°36' W 009°52'713.9
2017-May-23 02:30N 37°43' W 009°54'714.1
2017-May-23 02:00N 37°50' W 009°56'714.0
2017-May-23 01:30N 37°57' W 009°59'713.8
2017-May-23 01:00N 38°03' W 010°01'714.0
2017-May-23 00:30N 38°10' W 010°03'714.1
2017-May-23 00:00N 38°17' W 010°05'713.9
2017-May-22 23:30N 38°24' W 010°07'714.0
2017-May-22 23:01N 38°31' W 010°09'714.4
2017-May-22 22:30N 38°38' W 010°11'714.0
2017-May-22 22:00N 38°45' W 010°12'713.9
2017-May-22 21:30N 38°52' W 010°12'713.8
2017-May-22 21:00N 38°59' W 010°12'714.0
2017-May-22 20:31N 39°06' W 010°12'713.9
2017-May-22 19:59N 39°13' W 010°12'714.6
2017-May-22 19:29N 39°20' W 010°12'714.3
2017-May-22 19:00N 39°27' W 010°12'714.3
2017-May-22 18:30N 39°34' W 010°12'714.2
2017-May-22 18:00N 39°41' W 010°12'5337.4
2017-May-22 18:00N 39°36' W 010°12'1225.2 350 / 191019.010.8 18.0 18.0
2017-May-22 17:30N 39°48' W 010°12'714.5
2017-May-22 17:00N 39°55' W 010°12'714.5
2017-May-22 16:30N 40°03' W 010°13'714.4
2017-May-22 16:00N 40°10' W 010°13'1614.3
2017-May-22 14:54N 40°26' W 010°13'2914.4
2017-May-22 12:54N 40°55' W 010°12'614.3
2017-May-22 12:28N 41°01' W 010°12'511.2
2017-May-22 12:00N 41°06' W 010°12'328.1 320 / 161020.010.8 17.515.917.2
2017-May-22 11:52N 41°09' W 010°12'614.4
2017-May-22 11:25N 41°16' W 010°12'25914.9
2017-May-21 18:00N 45°24' W 008°30'17614.7 180 / 121012.0 5.4 17.0 14.0
2017-May-21 06:00N 48°00' W 006°30'4214.8 160 / 201021.010.8 14.010.512.0
2017-May-21 03:08N 48°38' W 006°02'615.4
2017-May-21 02:45N 48°43' W 005°57'415.3
2017-May-21 02:30N 48°46' W 005°54'1214.8
2017-May-21 01:44N 48°56' W 005°44'314.6
2017-May-21 01:30N 48°57' W 005°40'1714.3
2017-May-21 00:19N 49°07' W 005°19'414.0
2017-May-21 00:00N 49°09' W 005°13'914.1
2017-May-20 23:23N 49°14' W 005°02'2114.2
2017-May-20 21:54N 49°24' W 004°34'614.7
2017-May-20 21:28N 49°27' W 004°25'2815.1
2017-May-20 19:39N 49°40' W 003°47'215.4
2017-May-20 19:29N 49°42' W 003°44'815.5
2017-May-20 19:00N 49°45' W 003°34'815.3
2017-May-20 18:30N 49°49' W 003°24'815.1
2017-May-20 18:00N 49°53' W 003°14'714.8
2017-May-20 17:30N 49°56' W 003°04'714.3
2017-May-20 17:00N 49°59' W 002°54'713.9
2017-May-20 16:30N 50°02' W 002°43'9013.8
2017-May-20 10:00N 50°27' W 000°29'815.8
2017-May-20 09:30N 50°29' W 000°17'815.7
2017-May-20 09:00N 50°31' W 000°05'714.4
2017-May-20 08:30N 50°33' E 000°06'713.7
2017-May-20 08:00N 50°35' E 000°16'714.0
2017-May-20 07:30N 50°37' E 000°27'714.1
2017-May-20 07:00N 50°40' E 000°37'1414.2
2017-May-20 06:00N 50°48' E 000°56'713.6
2017-May-20 05:30N 50°52' E 001°04'713.6
2017-May-20 05:00N 50°57' E 001°12'713.4
2017-May-20 04:30N 51°01' E 001°20'713.8
2017-May-20 04:00N 51°05' E 001°29'714.6
2017-May-20 03:30N 51°09' E 001°38'815.0
2017-May-20 03:00N 51°14' E 001°47'815.6
2017-May-20 02:30N 51°21' E 001°52'815.6
2017-May-20 02:00N 51°28' E 001°60'815.6
2017-May-20 01:30N 51°33' E 002°08'815.5
2017-May-20 01:00N 51°39' E 002°16'815.4
2017-May-20 00:29N 51°46' E 002°24'1115.0
2017-May-19 23:47N 51°54' E 002°35'414.7
2017-May-19 23:30N 51°57' E 002°39'814.5
2017-May-19 22:57N 52°03' E 002°48'5514.0
2017-May-19 19:02N 52°46' E 003°43'114.3
2017-May-19 19:00N 52°46' E 003°44'1214.5
2017-May-19 18:12N 52°56' E 003°55'2 9.2
2017-May-19 18:00N 52°54' E 003°54'5205.2 250 / 191011.010.8 14.0 12.0
2017-May-19 17:58N 52°58' E 003°60'714.8
2017-May-19 17:28N 53°03' E 004°09'914.8
2017-May-19 16:52N 53°08' E 004°21'6212.7
2017-May-19 12:00N 53°42' E 005°48'9214.5 180 / 201009.0 5.4 13.0 9.4
2017-May-19 05:37N 53°60' E 008°22'318.3
2017-May-19 05:26N 53°59' E 008°27'716.9
2017-May-19 05:00N 53°57' E 008°39'713.3
2017-May-19 04:30N 53°51' E 008°46'713.7
2017-May-19 04:00N 53°51' E 008°57'714.4
2017-May-19 03:30N 53°53' E 009°09'5 9.7
2017-May-19 03:00N 53°52' E 009°17'713.5
2017-May-19 02:31N 53°47' E 009°23'713.7
2017-May-19 02:01N 53°41' E 009°30'713.1
2017-May-19 01:30N 53°36' E 009°36'611.9
2017-May-19 01:01N 53°34' E 009°46'510.9
2017-May-19 00:31N 53°33' E 009°55'2 4.1
2017-May-18 23:58N 53°30' E 009°56'0 0.0
2017-May-18 23:28N 53°31' E 009°56'0 0.0
2017-May-18 22:58N 53°30' E 009°56'0 0.0
2017-May-18 22:28N 53°31' E 009°56'0 0.0
2017-May-18 21:58N 53°31' E 009°56'0 0.0
2017-May-18 21:28N 53°30' E 009°56'0 0.0
2017-May-18 20:58N 53°30' E 009°56'0 0.0
2017-May-18 20:28N 53°31' E 009°56'0 0.0
2017-May-18 19:58N 53°31' E 009°56'0 0.0
2017-May-18 19:28N 53°31' E 009°56'0 0.0
2017-May-18 18:58N 53°30' E 009°56'0 0.0
2017-May-18 18:25N 53°30' E 009°56'0 0.0
2017-May-18 17:58N 53°30' E 009°56'0 0.0
2017-May-18 17:28N 53°30' E 009°56'0 0.0
2017-May-18 16:58N 53°30' E 009°56'0 0.0
2017-May-18 16:28N 53°31' E 009°56'0 0.0
2017-May-18 15:58N 53°30' E 009°56'0 0.0
2017-May-18 15:28N 53°31' E 009°56'0 0.0
2017-May-18 14:58N 53°30' E 009°56'0 0.0
2017-May-18 13:58N 53°30' E 009°56'0 0.0
2017-May-18 13:28N 53°30' E 009°56'0 0.0
2017-May-18 12:58N 53°30' E 009°56'0 1.0
2017-May-18 12:31N 53°30' E 009°57'3 5.4
2017-May-18 12:01N 53°32' E 009°54'510.2
2017-May-18 11:31N 53°34' E 009°46'4 8.9
2017-May-18 11:01N 53°34' E 009°39'611.5
2017-May-18 10:31N 53°38' E 009°32'5 9.8
2017-May-18 10:01N 53°43' E 009°29'611.9
2017-May-18 09:30N 53°48' E 009°23'713.3
2017-May-18 09:00N 53°52' E 009°15'510.3
2017-May-18 08:31N 53°53' E 009°06'510.7
2017-May-18 08:00N 53°51' E 008°58'612.0
2017-May-18 07:30N 53°50' E 008°48'611.5
2017-May-18 07:00N 53°55' E 008°41'812.8
2017-May-18 06:20N 53°59' E 008°28'513.7
2017-May-18 05:57N 53°59' E 008°19'612.9
2017-May-18 05:30N 53°60' E 008°09'5 9.1
2017-May-18 04:59N 53°58' E 008°01'4 5.1
2017-May-18 04:13N 53°57' E 007°55'1 1.7
2017-May-18 03:41N 53°57' E 007°53'8313.9
2017-May-17 21:44N 53°36' E 005°38'415.0
2017-May-17 21:30N 53°35' E 005°33'715.1
2017-May-17 21:00N 53°33' E 005°21'815.3
2017-May-17 20:31N 53°30' E 005°09'815.2
2017-May-17 20:00N 53°28' E 004°56'815.1
2017-May-17 19:30N 53°25' E 004°45'815.1
2017-May-17 19:00N 53°19' E 004°38'815.1
2017-May-17 18:30N 53°12' E 004°32'815.4
2017-May-17 18:01N 53°05' E 004°26'172.1
2017-May-17 18:00N 53°06' E 004°24'816.1 090 / 81010.0 5.4 22.019.012.0
2017-May-17 17:31N 52°59' E 004°20'815.3
2017-May-17 17:00N 52°52' E 004°14'815.8
2017-May-17 16:30N 52°45' E 004°07'917.8
2017-May-17 16:01N 52°40' E 003°55'917.5
2017-May-17 15:30N 52°35' E 003°42'817.2
2017-May-17 15:00N 52°28' E 003°36'917.5
2017-May-17 14:30N 52°19' E 003°32'1818.2
2017-May-17 13:30N 52°02' E 003°25'917.9
2017-May-17 13:00N 51°53' E 003°21'917.7
2017-May-17 12:30N 51°45' E 003°13'713.8
2017-May-17 12:00N 51°39' E 003°11'  
Track history (hours):
 
Tides and Currents Weather Stations Pressure Air Temp Water Temp Dewpoint Dewpoint Depression Visibility Wind Speed Wind Dir Waves Ship Positions

Ital Oriente

Last reported at 2017-May-27 12:00 UTC. Time now 2017-May-27 13:43 UTC.
Position N 25°42' W 015°24'.

Length 222 m; draft 10.8 m.

Type: Cargo ship. MMSI: 636091278.

Wind from 360 at 8 knots

Barometer 1018.0 mb
Air temperature 22.0 ° C
Visibility: greater than 10.8 NM
Water temperature 22.0 ° C

Date/timePositionNaut miles runAvg speedWind from/ knotsBaromVisibWave heightAir tempDewpointWater temp
2017-May-27 12:00N 25°42' W 015°24'10317.1 360 / 81018.010.8 22.0 22.0
2017-May-27 06:00N 27°06' W 014°18'3919.3 360 / 61016.010.8 21.0 20.0
2017-May-27 03:58N 27°40' W 013°56'1518.0
2017-May-27 03:09N 27°51' W 013°46'1517.8
2017-May-27 02:20N 28°03' W 013°36'617.8
2017-May-27 02:00N 28°08' W 013°33'1317.7
2017-May-27 01:15N 28°19' W 013°24'417.8
2017-May-27 01:01N 28°23' W 013°21'1317.7
2017-May-27 00:16N 28°33' W 013°12'11117.6
2017-May-26 18:00N 30°00' W 011°54'10617.7 340 / 121015.010.8 22.0 20.0
2017-May-26 12:00N 31°30' W 010°48'239 8.0 360 / 101016.010.8 20.0 20.0
2017-May-25 06:00N 34°06' W 007°12'12813.5 240 / 121013.010.8 21.0 20.0
2017-May-24 20:30N 35°57' W 005°53'1614.6
2017-May-24 19:25N 35°57' W 005°34'3 0.3
2017-May-24 06:38N 35°54' W 005°34'1 4.3
2017-May-24 06:28N 35°53' W 005°34'0 0.1
2017-May-24 03:18N 35°53' W 005°34'0 0.1
2017-May-23 22:58N 35°53' W 005°35'2 2.7
2017-May-23 22:22N 35°54' W 005°34'612.3
2017-May-23 21:54N 35°54' W 005°41'4 9.7
2017-May-23 21:30N 35°54' W 005°46'510.7
2017-May-23 21:00N 35°54' W 005°53'4514.9
2017-May-23 18:00N 35°54' W 006°48'7313.2 090 / 351010.0 5.4 22.0 19.0
2017-May-23 12:27N 36°14' W 008°15'612.9
2017-May-23 12:00N 36°16' W 008°22'4255.3
2017-May-23 12:00N 36°12' W 008°24'714.1 090 / 151015.010.8 24.022.620.0
2017-May-23 11:30N 36°17' W 008°30'713.1
2017-May-23 11:00N 36°19' W 008°38'612.9
2017-May-23 10:30N 36°21' W 008°45'713.0
2017-May-23 10:00N 36°23' W 008°53'713.1
2017-May-23 09:30N 36°25' W 009°01'613.0
2017-May-23 09:00N 36°27' W 009°08'713.1
2017-May-23 08:30N 36°29' W 009°16'713.3
2017-May-23 07:59N 36°33' W 009°23'713.8
2017-May-23 07:30N 36°38' W 009°29'713.7
2017-May-23 07:01N 36°43' W 009°34'713.6
2017-May-23 06:30N 36°49' W 009°39'611.0
2017-May-23 06:00N 36°54' W 009°36'4787.3 360 / 191015.010.8 18.0 18.0
2017-May-23 05:59N 36°56' W 009°41'714.2
2017-May-23 05:30N 37°03' W 009°42'2313.9
2017-May-23 03:53N 37°25' W 009°49'613.8
2017-May-23 03:28N 37°30' W 009°50'613.9
2017-May-23 03:00N 37°36' W 009°52'713.9
2017-May-23 02:30N 37°43' W 009°54'714.1
2017-May-23 02:00N 37°50' W 009°56'714.0
2017-May-23 01:30N 37°57' W 009°59'713.8
2017-May-23 01:00N 38°03' W 010°01'714.0
2017-May-23 00:30N 38°10' W 010°03'714.1
2017-May-23 00:00N 38°17' W 010°05'713.9
2017-May-22 23:30N 38°24' W 010°07'714.0
2017-May-22 23:01N 38°31' W 010°09'714.4
2017-May-22 22:30N 38°38' W 010°11'714.0
2017-May-22 22:00N 38°45' W 010°12'713.9
2017-May-22 21:30N 38°52' W 010°12'713.8
2017-May-22 21:00N 38°59' W 010°12'714.0
2017-May-22 20:31N 39°06' W 010°12'713.9
2017-May-22 19:59N 39°13' W 010°12'714.6
2017-May-22 19:29N 39°20' W 010°12'714.3
2017-May-22 19:00N 39°27' W 010°12'714.3
2017-May-22 18:30N 39°34' W 010°12'714.2
2017-May-22 18:00N 39°41' W 010°12'5337.4
2017-May-22 18:00N 39°36' W 010°12'1225.2 350 / 191019.010.8 18.0 18.0
2017-May-22 17:30N 39°48' W 010°12'714.5
2017-May-22 17:00N 39°55' W 010°12'714.5
2017-May-22 16:30N 40°03' W 010°13'714.4
2017-May-22 16:00N 40°10' W 010°13'1614.3
2017-May-22 14:54N 40°26' W 010°13'2914.4
2017-May-22 12:54N 40°55' W 010°12'614.3
2017-May-22 12:28N 41°01' W 010°12'511.2
2017-May-22 12:00N 41°06' W 010°12'328.1 320 / 161020.010.8 17.515.917.2
2017-May-22 11:52N 41°09' W 010°12'614.4
2017-May-22 11:25N 41°16' W 010°12'25914.9
2017-May-21 18:00N 45°24' W 008°30'17614.7 180 / 121012.0 5.4 17.0 14.0
2017-May-21 06:00N 48°00' W 006°30'4214.8 160 / 201021.010.8 14.010.512.0
2017-May-21 03:08N 48°38' W 006°02'615.4
2017-May-21 02:45N 48°43' W 005°57'415.3
2017-May-21 02:30N 48°46' W 005°54'1214.8
2017-May-21 01:44N 48°56' W 005°44'314.6
2017-May-21 01:30N 48°57' W 005°40'1714.3
2017-May-21 00:19N 49°07' W 005°19'414.0
2017-May-21 00:00N 49°09' W 005°13'914.1
2017-May-20 23:23N 49°14' W 005°02'2114.2
2017-May-20 21:54N 49°24' W 004°34'614.7
2017-May-20 21:28N 49°27' W 004°25'2815.1
2017-May-20 19:39N 49°40' W 003°47'215.4
2017-May-20 19:29N 49°42' W 003°44'815.5
2017-May-20 19:00N 49°45' W 003°34'815.3
2017-May-20 18:30N 49°49' W 003°24'815.1
2017-May-20 18:00N 49°53' W 003°14'714.8
2017-May-20 17:30N 49°56' W 003°04'714.3
2017-May-20 17:00N 49°59' W 002°54'713.9
2017-May-20 16:30N 50°02' W 002°43'9013.8
2017-May-20 10:00N 50°27' W 000°29'815.8
2017-May-20 09:30N 50°29' W 000°17'815.7
2017-May-20 09:00N 50°31' W 000°05'714.4
2017-May-20 08:30N 50°33' E 000°06'713.7
2017-May-20 08:00N 50°35' E 000°16'714.0
2017-May-20 07:30N 50°37' E 000°27'714.1
2017-May-20 07:00N 50°40' E 000°37'1414.2
2017-May-20 06:00N 50°48' E 000°56'713.6
2017-May-20 05:30N 50°52' E 001°04'713.6
2017-May-20 05:00N 50°57' E 001°12'713.4
2017-May-20 04:30N 51°01' E 001°20'713.8
2017-May-20 04:00N 51°05' E 001°29'714.6
2017-May-20 03:30N 51°09' E 001°38'815.0
2017-May-20 03:00N 51°14' E 001°47'815.6
2017-May-20 02:30N 51°21' E 001°52'815.6
2017-May-20 02:00N 51°28' E 001°60'815.6
2017-May-20 01:30N 51°33' E 002°08'815.5
2017-May-20 01:00N 51°39' E 002°16'815.4
2017-May-20 00:29N 51°46' E 002°24'1115.0
2017-May-19 23:47N 51°54' E 002°35'414.7
2017-May-19 23:30N 51°57' E 002°39'814.5
2017-May-19 22:57N 52°03' E 002°48'5514.0
2017-May-19 19:02N 52°46' E 003°43'114.3
2017-May-19 19:00N 52°46' E 003°44'1214.5
2017-May-19 18:12N 52°56' E 003°55'2 9.2
2017-May-19 18:00N 52°54' E 003°54'5205.2 250 / 191011.010.8 14.0 12.0
2017-May-19 17:58N 52°58' E 003°60'714.8
2017-May-19 17:28N 53°03' E 004°09'914.8
2017-May-19 16:52N 53°08' E 004°21'6212.7
2017-May-19 12:00N 53°42' E 005°48'9214.5 180 / 201009.0 5.4 13.0 9.4
2017-May-19 05:37N 53°60' E 008°22'318.3
2017-May-19 05:26N 53°59' E 008°27'716.9
2017-May-19 05:00N 53°57' E 008°39'713.3
2017-May-19 04:30N 53°51' E 008°46'713.7
2017-May-19 04:00N 53°51' E 008°57'714.4
2017-May-19 03:30N 53°53' E 009°09'5 9.7
2017-May-19 03:00N 53°52' E 009°17'713.5
2017-May-19 02:31N 53°47' E 009°23'713.7
2017-May-19 02:01N 53°41' E 009°30'713.1
2017-May-19 01:30N 53°36' E 009°36'611.9
2017-May-19 01:01N 53°34' E 009°46'510.9
2017-May-19 00:31N 53°33' E 009°55'2 4.1
2017-May-18 23:58N 53°30' E 009°56'0 0.0
2017-May-18 23:28N 53°31' E 009°56'0 0.0
2017-May-18 22:58N 53°30' E 009°56'0 0.0
2017-May-18 22:28N 53°31' E 009°56'0 0.0
2017-May-18 21:58N 53°31' E 009°56'0 0.0
2017-May-18 21:28N 53°30' E 009°56'0 0.0
2017-May-18 20:58N 53°30' E 009°56'0 0.0
2017-May-18 20:28N 53°31' E 009°56'0 0.0
2017-May-18 19:58N 53°31' E 009°56'0 0.0
2017-May-18 19:28N 53°31' E 009°56'0 0.0
2017-May-18 18:58N 53°30' E 009°56'0 0.0
2017-May-18 18:25N 53°30' E 009°56'0 0.0
2017-May-18 17:58N 53°30' E 009°56'0 0.0
2017-May-18 17:28N 53°30' E 009°56'0 0.0
2017-May-18 16:58N 53°30' E 009°56'0 0.0
2017-May-18 16:28N 53°31' E 009°56'0 0.0
2017-May-18 15:58N 53°30' E 009°56'0 0.0
2017-May-18 15:28N 53°31' E 009°56'0 0.0
2017-May-18 14:58N 53°30' E 009°56'0 0.0
2017-May-18 13:58N 53°30' E 009°56'0 0.0
2017-May-18 13:28N 53°30' E 009°56'0 0.0
2017-May-18 12:58N 53°30' E 009°56'0 1.0
2017-May-18 12:31N 53°30' E 009°57'3 5.4
2017-May-18 12:01N 53°32' E 009°54'510.2
2017-May-18 11:31N 53°34' E 009°46'4 8.9
2017-May-18 11:01N 53°34' E 009°39'611.5
2017-May-18 10:31N 53°38' E 009°32'5 9.8
2017-May-18 10:01N 53°43' E 009°29'611.9
2017-May-18 09:30N 53°48' E 009°23'713.3
2017-May-18 09:00N 53°52' E 009°15'510.3
2017-May-18 08:31N 53°53' E 009°06'510.7
2017-May-18 08:00N 53°51' E 008°58'612.0
2017-May-18 07:30N 53°50' E 008°48'611.5
2017-May-18 07:00N 53°55' E 008°41'812.8
2017-May-18 06:20N 53°59' E 008°28'513.7
2017-May-18 05:57N 53°59' E 008°19'612.9
2017-May-18 05:30N 53°60' E 008°09'5 9.1
2017-May-18 04:59N 53°58' E 008°01'4 5.1
2017-May-18 04:13N 53°57' E 007°55'1 1.7
2017-May-18 03:41N 53°57' E 007°53'8313.9
2017-May-17 21:44N 53°36' E 005°38'415.0
2017-May-17 21:30N 53°35' E 005°33'715.1
2017-May-17 21:00N 53°33' E 005°21'815.3
2017-May-17 20:31N 53°30' E 005°09'815.2
2017-May-17 20:00N 53°28' E 004°56'815.1
2017-May-17 19:30N 53°25' E 004°45'815.1
2017-May-17 19:00N 53°19' E 004°38'815.1
2017-May-17 18:30N 53°12' E 004°32'815.4
2017-May-17 18:01N 53°05' E 004°26'172.1
2017-May-17 18:00N 53°06' E 004°24'816.1 090 / 81010.0 5.4 22.019.012.0
2017-May-17 17:31N 52°59' E 004°20'815.3
2017-May-17 17:00N 52°52' E 004°14'815.8
2017-May-17 16:30N 52°45' E 004°07'917.8
2017-May-17 16:01N 52°40' E 003°55'917.5
2017-May-17 15:30N 52°35' E 003°42'817.2
2017-May-17 15:00N 52°28' E 003°36'917.5
2017-May-17 14:30N 52°19' E 003°32'1818.2
2017-May-17 13:30N 52°02' E 003°25'917.9
2017-May-17 13:00N 51°53' E 003°21'917.7
2017-May-17 12:30N 51°45' E 003°13'713.8
2017-May-17 12:00N 51°39' E 003°11'  

Dump ship's entire track history